createdAt,value
2018-04-08T00:01:58.450Z,14.03
2018-04-08T00:04:24.806Z,13.83
2018-04-08T00:06:51.205Z,14.04
2018-04-08T00:09:17.597Z,14.00
2018-04-08T00:11:43.979Z,13.92
2018-04-08T00:14:10.439Z,13.66
2018-04-08T00:16:36.846Z,13.56
2018-04-08T00:19:03.189Z,13.24
2018-04-08T00:21:29.689Z,13.62
2018-04-08T00:23:56.097Z,13.78
2018-04-08T00:26:22.577Z,13.49
2018-04-08T00:28:48.973Z,13.59
2018-04-08T00:31:15.322Z,13.49
2018-04-08T00:33:41.729Z,13.41
2018-04-08T00:36:08.106Z,13.26
2018-04-08T00:38:34.438Z,13.41
2018-04-08T00:41:00.858Z,13.19
2018-04-08T00:43:27.228Z,13.20
2018-04-08T00:45:53.638Z,13.05
2018-04-08T00:48:20.030Z,13.14
2018-04-08T00:50:46.403Z,12.99
2018-04-08T00:53:12.833Z,13.12
2018-04-08T00:55:39.249Z,13.09
2018-04-08T00:58:05.473Z,13.14
2018-04-08T01:00:31.725Z,13.24
2018-04-08T01:02:58.035Z,13.38
2018-04-08T01:05:24.334Z,13.38
2018-04-08T01:07:51.710Z,13.35
2018-04-08T01:10:17.993Z,13.35
2018-04-08T01:12:44.209Z,13.48
2018-04-08T01:15:10.425Z,13.37
2018-04-08T01:17:36.766Z,13.06
2018-04-08T01:20:03.250Z,13.25
2018-04-08T01:22:29.597Z,13.34
2018-04-08T01:24:56.059Z,13.49
2018-04-08T01:27:22.471Z,13.60
2018-04-08T01:29:48.824Z,13.62
2018-04-08T01:32:15.225Z,13.30
2018-04-08T01:34:41.581Z,13.29
2018-04-08T01:37:08.030Z,13.36
2018-04-08T01:39:34.454Z,13.25
2018-04-08T01:42:00.931Z,13.16
2018-04-08T01:44:27.321Z,13.01
2018-04-08T01:46:53.719Z,12.96
2018-04-08T01:49:20.235Z,12.88
2018-04-08T01:51:46.577Z,12.82
2018-04-08T01:54:12.926Z,12.93
2018-04-08T01:56:39.364Z,12.96
2018-04-08T01:59:05.746Z,12.88
2018-04-08T02:01:32.131Z,12.85
2018-04-08T02:03:58.665Z,12.70
2018-04-08T02:06:25.030Z,12.83
2018-04-08T02:08:51.373Z,12.90
2018-04-08T02:11:17.861Z,13.09
2018-04-08T02:13:44.249Z,13.15
2018-04-08T02:16:10.578Z,13.19
2018-04-08T02:18:36.942Z,13.24
2018-04-08T02:21:03.286Z,13.24
2018-04-08T02:23:29.793Z,13.39
2018-04-08T02:25:56.133Z,13.56
2018-04-08T02:28:22.485Z,13.55
2018-04-08T02:30:48.873Z,13.59
2018-04-08T02:33:15.234Z,13.59
2018-04-08T02:35:41.625Z,13.71
2018-04-08T02:38:08.019Z,13.85
2018-04-08T02:40:34.370Z,13.99
2018-04-08T02:43:00.902Z,14.09
2018-04-08T02:45:27.246Z,14.06
2018-04-08T02:47:53.609Z,14.23
2018-04-08T02:50:20.024Z,14.21
2018-04-08T02:52:46.434Z,14.34
2018-04-08T02:55:12.825Z,14.14
2018-04-08T02:57:39.319Z,14.26
2018-04-08T03:00:05.752Z,14.27
2018-04-08T03:02:32.146Z,14.38
2018-04-08T03:04:58.598Z,14.18
2018-04-08T03:07:24.989Z,14.29
2018-04-08T03:09:51.355Z,14.28
2018-04-08T03:12:17.838Z,14.33
2018-04-08T03:14:44.285Z,14.22
2018-04-08T03:17:10.661Z,14.20
2018-04-08T03:19:37.154Z,14.23
2018-04-08T03:22:03.837Z,14.28
2018-04-08T03:24:30.217Z,14.34
2018-04-08T03:26:56.640Z,14.31
2018-04-08T03:29:23.009Z,14.27
2018-04-08T03:31:49.434Z,14.19
2018-04-08T03:34:15.810Z,14.31
2018-04-08T03:36:42.277Z,14.15
2018-04-08T03:39:08.669Z,14.18
2018-04-08T03:41:35.118Z,14.19
2018-04-08T03:44:01.498Z,14.23
2018-04-08T03:46:27.886Z,14.24
2018-04-08T03:48:54.301Z,14.16
2018-04-08T03:51:20.677Z,14.18
2018-04-08T03:53:47.134Z,14.14
2018-04-08T03:56:13.601Z,14.24
2018-04-08T03:58:42.001Z,14.12
2018-04-08T04:01:08.455Z,14.27
2018-04-08T04:03:34.926Z,14.33
2018-04-08T04:06:01.342Z,14.36
2018-04-08T04:08:27.734Z,14.33
2018-04-08T04:10:54.194Z,14.38
2018-04-08T04:13:20.638Z,14.35
2018-04-08T04:15:47.061Z,14.37
2018-04-08T04:18:25.750Z,14.35
2018-04-08T04:21:04.330Z,14.44
2018-04-08T04:23:42.920Z,14.34
2018-04-08T04:26:21.406Z,14.13
2018-04-08T04:28:47.822Z,14.06
2018-04-08T04:31:14.293Z,14.13
2018-04-08T04:33:40.695Z,14.18
2018-04-08T04:36:07.074Z,14.27
2018-04-08T04:38:33.457Z,14.12
2018-04-08T04:40:59.838Z,14.00
2018-04-08T04:43:26.273Z,14.12
2018-04-08T04:45:52.709Z,14.20
2018-04-08T04:48:19.081Z,14.19
2018-04-08T04:50:45.452Z,14.38
2018-04-08T04:53:11.869Z,14.13
2018-04-08T04:55:38.321Z,14.06
2018-04-08T04:58:04.781Z,14.17
2018-04-08T05:00:31.222Z,14.08
2018-04-08T05:02:57.657Z,14.18
2018-04-08T05:05:24.033Z,14.30
2018-04-08T05:07:50.411Z,14.36
2018-04-08T05:10:16.833Z,14.25
2018-04-08T05:12:43.269Z,14.36
2018-04-08T05:15:09.695Z,14.57
2018-04-08T05:17:36.097Z,14.70
2018-04-08T05:20:02.493Z,14.69
2018-04-08T05:22:28.926Z,14.85
2018-04-08T05:24:55.318Z,14.97
2018-04-08T05:27:21.749Z,15.17
2018-04-08T05:29:48.138Z,15.30
2018-04-08T05:32:14.554Z,15.13
2018-04-08T05:34:40.986Z,15.28
2018-04-08T05:37:07.365Z,15.23
2018-04-08T05:39:33.753Z,15.41
2018-04-08T05:42:00.102Z,15.67
2018-04-08T05:44:26.543Z,15.56
2018-04-08T05:46:53.948Z,15.56
2018-04-08T05:49:21.338Z,15.69
2018-04-08T05:51:48.061Z,15.84
2018-04-08T05:54:14.455Z,15.91
2018-04-08T05:56:40.981Z,16.01
2018-04-08T05:59:07.410Z,16.21
2018-04-08T06:01:33.839Z,16.32
2018-04-08T06:04:00.197Z,16.36
2018-04-08T06:06:26.563Z,16.37
2018-04-08T06:08:52.924Z,16.52
2018-04-08T06:11:19.274Z,16.50
2018-04-08T06:13:45.662Z,16.70
2018-04-08T06:16:12.067Z,16.57
2018-04-08T06:18:38.502Z,16.71
2018-04-08T06:21:04.885Z,16.82
2018-04-08T06:23:31.288Z,16.94
2018-04-08T06:25:57.726Z,16.55
2018-04-08T06:28:24.206Z,16.68
2018-04-08T06:30:50.614Z,16.87
2018-04-08T06:33:16.981Z,17.03
2018-04-08T06:35:43.734Z,17.08
2018-04-08T06:38:10.369Z,17.13
2018-04-08T06:40:36.762Z,17.18
2018-04-08T06:43:03.225Z,17.16
2018-04-08T06:45:29.649Z,17.18
2018-04-08T06:47:56.064Z,17.38
2018-04-08T06:50:22.450Z,17.46
2018-04-08T06:52:48.822Z,17.57
2018-04-08T06:55:15.173Z,17.67
2018-04-08T06:57:41.545Z,17.80
2018-04-08T07:00:08.148Z,17.91
2018-04-08T07:02:34.555Z,17.75
2018-04-08T07:05:00.986Z,17.90
2018-04-08T07:07:27.329Z,17.99
2018-04-08T07:09:53.726Z,17.94
2018-04-08T07:12:20.143Z,17.92
2018-04-08T07:14:46.558Z,17.97
2018-04-08T07:17:12.914Z,17.97
2018-04-08T07:19:39.282Z,17.97
2018-04-08T07:22:05.695Z,17.86
2018-04-08T07:24:32.117Z,18.02
2018-04-08T07:26:58.458Z,18.25
2018-04-08T07:29:24.862Z,18.25
2018-04-08T07:31:51.425Z,18.27
2018-04-08T07:34:17.800Z,18.37
2018-04-08T07:36:44.210Z,18.52
2018-04-08T07:39:10.569Z,18.59
2018-04-08T07:41:36.973Z,18.62
2018-04-08T07:44:03.353Z,18.56
2018-04-08T07:46:29.697Z,18.70
2018-04-08T07:48:56.094Z,18.70
2018-04-08T07:51:22.445Z,18.67
2018-04-08T07:53:49.141Z,18.51
2018-04-08T07:56:15.509Z,18.47
2018-04-08T07:58:42.097Z,18.46
2018-04-08T08:01:08.509Z,18.43
2018-04-08T08:03:34.918Z,18.68
2018-04-08T08:06:01.989Z,18.82
2018-04-08T08:08:28.389Z,18.77
2018-04-08T08:10:54.795Z,18.79
2018-04-08T08:13:21.157Z,19.06
2018-04-08T08:15:47.554Z,19.15
2018-04-08T08:18:13.960Z,19.04
2018-04-08T08:20:40.501Z,19.11
2018-04-08T08:23:06.914Z,19.03
2018-04-08T08:25:33.342Z,19.12
2018-04-08T08:27:59.721Z,19.31
2018-04-08T08:30:26.088Z,19.32
2018-04-08T08:32:52.469Z,19.26
2018-04-08T08:35:18.850Z,19.32
2018-04-08T08:37:45.205Z,19.22
2018-04-08T08:40:11.554Z,19.26
2018-04-08T08:42:37.962Z,19.45
2018-04-08T08:45:04.341Z,19.65
2018-04-08T08:47:30.741Z,19.67
2018-04-08T08:49:57.109Z,19.80
2018-04-08T08:52:23.565Z,19.80
2018-04-08T08:54:49.956Z,19.87
2018-04-08T08:57:16.306Z,19.94
2018-04-08T08:59:42.689Z,19.78
2018-04-08T09:02:09.073Z,19.60
2018-04-08T09:04:35.501Z,19.88
2018-04-08T09:07:01.897Z,19.96
2018-04-08T09:09:28.253Z,19.63
2018-04-08T09:11:54.625Z,19.79
2018-04-08T09:14:20.994Z,19.87
2018-04-08T09:16:47.389Z,19.98
2018-04-08T09:19:18.815Z,20.13
2018-04-08T09:35:03.672Z,20.19
2018-04-08T09:37:30.046Z,20.14
2018-04-08T09:39:56.385Z,20.06
2018-04-08T09:42:22.772Z,20.23
2018-04-08T09:44:49.302Z,20.29
2018-04-08T09:47:15.871Z,20.31
2018-04-08T09:49:42.396Z,19.98
2018-04-08T09:52:08.745Z,20.28
2018-04-08T09:54:35.344Z,20.41
2018-04-08T09:57:01.779Z,20.62
2018-04-08T09:59:28.181Z,20.56
2018-04-08T10:15:13.102Z,20.72
2018-04-08T10:17:39.463Z,20.79
2018-04-08T10:20:06.278Z,20.92
2018-04-08T10:22:32.799Z,20.97
2018-04-08T10:24:59.213Z,20.94
2018-04-08T10:27:25.777Z,21.07
2018-04-08T10:29:52.377Z,21.20
2018-04-08T10:32:18.744Z,21.23
2018-04-08T10:34:45.102Z,21.19
2018-04-08T10:37:11.455Z,21.12
2018-04-08T10:39:37.817Z,21.25
2018-04-08T10:42:04.226Z,21.20
2018-04-08T10:44:30.653Z,21.23
2018-04-08T10:46:57.057Z,21.38
2018-04-08T10:49:23.415Z,21.35
2018-04-08T10:51:49.881Z,21.26
2018-04-08T10:54:16.240Z,21.37
2018-04-08T10:56:42.665Z,21.42
2018-04-08T10:59:09.010Z,21.68
2018-04-08T11:01:35.373Z,21.84
2018-04-08T11:04:01.733Z,21.89
2018-04-08T11:06:28.105Z,21.90
2018-04-08T11:08:54.494Z,21.86
2018-04-08T11:11:20.862Z,21.97
2018-04-08T11:13:47.216Z,22.00
2018-04-08T11:16:13.638Z,21.75
2018-04-08T11:18:40.005Z,21.85
2018-04-08T11:21:06.357Z,21.87
2018-04-08T11:23:32.721Z,21.80
2018-04-08T11:25:59.137Z,21.74
2018-04-08T11:28:25.514Z,21.70
2018-04-08T11:30:51.883Z,21.59
2018-04-08T11:33:18.237Z,21.61
2018-04-08T11:35:44.690Z,21.58
2018-04-08T11:38:11.552Z,21.64
2018-04-08T11:40:37.929Z,21.80
2018-04-08T11:43:04.379Z,21.93
2018-04-08T11:45:30.782Z,22.12
2018-04-08T11:47:57.143Z,22.08
2018-04-08T11:50:23.565Z,22.00
2018-04-08T11:52:49.975Z,22.04
2018-04-08T11:55:16.341Z,21.90
2018-04-08T11:57:42.714Z,22.01
2018-04-08T12:00:09.125Z,22.07
2018-04-08T12:02:35.513Z,22.19
2018-04-08T12:05:01.878Z,22.28
2018-04-08T12:07:28.381Z,22.14
2018-04-08T12:09:54.961Z,22.19
2018-04-08T12:12:21.478Z,22.23
2018-04-08T12:14:47.845Z,21.99
2018-04-08T12:17:14.237Z,21.92
2018-04-08T12:19:40.657Z,22.10
2018-04-08T12:22:07.061Z,22.22
2018-04-08T12:24:33.501Z,22.20
2018-04-08T12:27:00.910Z,22.17
2018-04-08T12:29:27.341Z,22.22
2018-04-08T12:31:53.764Z,22.36
2018-04-08T12:34:20.151Z,22.41
2018-04-08T12:36:46.754Z,22.42
2018-04-08T12:39:13.148Z,22.31
2018-04-08T12:41:39.506Z,22.39
2018-04-08T12:44:05.874Z,22.12
2018-04-08T12:46:32.249Z,22.06
2018-04-08T12:48:58.799Z,22.28
2018-04-08T12:51:25.170Z,22.21
2018-04-08T12:53:51.581Z,22.31
2018-04-08T12:56:18.010Z,22.39
2018-04-08T12:58:44.396Z,22.42
2018-04-08T13:01:10.775Z,22.35
2018-04-08T13:03:37.144Z,22.28
2018-04-08T13:06:03.554Z,22.30
2018-04-08T13:08:29.953Z,22.25
2018-04-08T13:10:56.301Z,22.26
2018-04-08T13:13:22.702Z,22.25
2018-04-08T13:15:49.109Z,22.26
2018-04-08T13:18:15.514Z,22.29
2018-04-08T13:20:41.954Z,22.25
2018-04-08T13:23:08.330Z,22.35
2018-04-08T13:25:34.721Z,22.42
2018-04-08T13:28:01.081Z,22.28
2018-04-08T13:30:27.448Z,22.29
2018-04-08T13:32:53.884Z,22.16
2018-04-08T13:35:20.234Z,22.24
2018-04-08T13:37:46.852Z,22.33
2018-04-08T13:40:13.262Z,22.24
2018-04-08T13:42:39.637Z,22.14
2018-04-08T13:45:05.985Z,22.18
2018-04-08T13:47:32.426Z,22.27
2018-04-08T13:49:58.813Z,22.19
2018-04-08T13:52:25.990Z,22.15
2018-04-08T13:54:52.409Z,22.28
2018-04-08T13:57:18.780Z,22.41
2018-04-08T13:59:45.163Z,22.41
2018-04-08T14:02:11.565Z,22.50
2018-04-08T14:04:37.901Z,22.48
2018-04-08T14:07:04.269Z,22.38
2018-04-08T14:09:30.646Z,22.44
2018-04-08T14:11:57.008Z,22.40
2018-04-08T14:14:23.380Z,22.46
2018-04-08T14:16:49.749Z,22.29
2018-04-08T14:19:16.116Z,22.40
2018-04-08T14:21:42.470Z,22.40
2018-04-08T14:24:08.858Z,22.49
2018-04-08T14:26:35.228Z,22.50
2018-04-08T14:29:01.600Z,22.43
2018-04-08T14:31:27.976Z,22.39
2018-04-08T14:33:54.365Z,22.36
2018-04-08T14:36:20.788Z,22.42
2018-04-08T14:38:47.155Z,22.41
2018-04-08T14:41:13.526Z,22.45
2018-04-08T14:43:39.912Z,22.39
2018-04-08T14:46:06.315Z,22.42
2018-04-08T14:48:32.742Z,22.44
2018-04-08T14:50:59.193Z,22.49
2018-04-08T14:53:25.590Z,22.43
2018-04-08T14:55:51.990Z,22.45
2018-04-08T14:58:18.406Z,22.36
2018-04-08T15:00:44.870Z,22.24
2018-04-08T15:03:11.275Z,22.33
2018-04-08T15:05:37.702Z,22.35
2018-04-08T15:08:04.125Z,22.33
2018-04-08T15:10:30.583Z,22.34
2018-04-08T15:12:56.984Z,22.25
2018-04-08T15:15:23.413Z,22.23
2018-04-08T15:17:49.969Z,22.18
2018-04-08T15:20:16.384Z,22.20
2018-04-08T15:22:42.819Z,22.10
2018-04-08T15:25:09.307Z,22.16
2018-04-08T15:27:35.703Z,22.07
2018-04-08T15:30:02.134Z,22.06
2018-04-08T15:32:28.566Z,22.16
2018-04-08T15:34:54.938Z,21.96
2018-04-08T15:37:21.290Z,21.83
2018-04-08T15:39:47.679Z,21.81
2018-04-08T15:42:14.082Z,21.94
2018-04-08T15:44:40.478Z,22.05
2018-04-08T15:47:06.879Z,22.02
2018-04-08T15:49:33.241Z,21.92
2018-04-08T15:51:59.664Z,21.80
2018-04-08T15:54:26.098Z,21.83
2018-04-08T15:56:52.466Z,21.89
2018-04-08T15:59:18.862Z,21.89
2018-04-08T16:01:45.302Z,21.97
2018-04-08T16:04:11.650Z,21.93
2018-04-08T16:06:38.017Z,21.78
2018-04-08T16:09:05.258Z,21.78
2018-04-08T16:11:31.622Z,21.69
2018-04-08T16:13:57.965Z,21.66
2018-04-08T16:16:24.513Z,21.50
2018-04-08T16:18:50.873Z,21.47
2018-04-08T16:21:17.249Z,21.46
2018-04-08T16:23:43.609Z,21.52
2018-04-08T16:26:09.981Z,21.46
2018-04-08T16:28:36.381Z,21.42
2018-04-08T16:31:02.788Z,21.39
2018-04-08T16:33:29.151Z,21.35
2018-04-08T16:35:55.574Z,21.31
2018-04-08T16:38:21.938Z,21.28
2018-04-08T16:40:48.285Z,21.22
2018-04-08T16:43:14.704Z,21.21
2018-04-08T16:45:41.085Z,21.14
2018-04-08T16:48:07.492Z,21.03
2018-04-08T16:50:33.906Z,21.00
2018-04-08T16:53:00.298Z,20.93
2018-04-08T16:55:26.706Z,20.88
2018-04-08T16:57:53.083Z,20.81
2018-04-08T17:00:19.597Z,20.76
2018-04-08T17:02:46.061Z,20.70
2018-04-08T17:05:12.503Z,20.64
2018-04-08T17:07:38.874Z,20.58
2018-04-08T17:10:05.301Z,20.53
2018-04-08T17:12:31.668Z,20.48
2018-04-08T17:14:58.045Z,20.45
2018-04-08T17:17:24.465Z,20.43
2018-04-08T17:19:50.854Z,20.38
2018-04-08T17:22:17.209Z,20.34
2018-04-08T17:24:43.642Z,20.28
2018-04-08T17:27:10.078Z,20.24
2018-04-08T17:29:36.485Z,20.21
2018-04-08T17:32:03.057Z,20.24
2018-04-08T17:34:29.470Z,20.25
2018-04-08T17:36:55.878Z,20.22
2018-04-08T17:39:22.246Z,20.16
2018-04-08T17:41:48.658Z,20.15
2018-04-08T17:44:15.070Z,20.12
2018-04-08T17:46:41.479Z,19.64
2018-04-08T17:49:07.933Z,19.86
2018-04-08T17:51:34.355Z,19.82
2018-04-08T17:54:00.749Z,19.70
2018-04-08T17:56:27.119Z,19.77
2018-04-08T17:58:53.499Z,19.80
2018-04-08T18:01:19.897Z,19.80
2018-04-08T18:03:46.273Z,19.81
2018-04-08T18:06:12.646Z,19.76
2018-04-08T18:08:39.001Z,19.71
2018-04-08T18:11:05.366Z,19.63
2018-04-08T18:13:31.741Z,19.64
2018-04-08T18:15:58.126Z,19.60
2018-04-08T18:18:24.490Z,19.45
2018-04-08T18:20:50.875Z,19.46
2018-04-08T18:23:17.213Z,19.50
2018-04-08T18:25:43.582Z,19.48
2018-04-08T18:28:09.953Z,19.47
2018-04-08T18:30:36.304Z,19.40
2018-04-08T18:33:02.653Z,19.41
2018-04-08T18:35:29.041Z,19.34
2018-04-08T18:37:55.433Z,19.33
2018-04-08T18:40:21.853Z,19.26
2018-04-08T18:42:48.242Z,19.19
2018-04-08T18:45:14.650Z,19.20
2018-04-08T18:47:41.008Z,19.17
2018-04-08T18:50:07.366Z,19.12
2018-04-08T18:52:33.749Z,19.07
2018-04-08T18:55:00.181Z,19.00
2018-04-08T18:57:26.557Z,18.95
2018-04-08T18:59:52.917Z,18.91
2018-04-08T19:02:19.309Z,18.88
2018-04-08T19:04:45.666Z,18.85
2018-04-08T19:07:12.066Z,18.82
2018-04-08T19:09:38.425Z,18.79
2018-04-08T19:12:04.798Z,18.76
2018-04-08T19:14:37.424Z,18.70
2018-04-08T19:17:03.845Z,18.68
2018-04-08T19:19:30.222Z,18.59
2018-04-08T19:21:56.601Z,18.60
2018-04-08T19:24:23.016Z,18.62
2018-04-08T19:26:49.410Z,18.60
2018-04-08T19:29:15.784Z,18.56
2018-04-08T19:31:42.166Z,18.53
2018-04-08T19:34:08.542Z,18.51
2018-04-08T19:36:34.894Z,18.52
2018-04-08T19:39:01.265Z,18.52
2018-04-08T19:41:27.634Z,18.45
2018-04-08T19:43:53.998Z,18.38
2018-04-08T19:46:20.354Z,18.27
2018-04-08T19:48:46.729Z,18.15
2018-04-08T19:51:13.086Z,18.20
2018-04-08T19:53:39.453Z,18.14
2018-04-08T19:56:05.806Z,18.15
2018-04-08T19:58:32.322Z,18.11
2018-04-08T20:00:58.778Z,18.17
2018-04-08T20:03:25.134Z,18.15
2018-04-08T20:05:51.517Z,18.17
2018-04-08T20:08:17.903Z,18.08
2018-04-08T20:10:44.485Z,18.13
2018-04-08T20:13:10.894Z,18.11
2018-04-08T20:15:37.250Z,18.07
2018-04-08T20:18:03.734Z,18.05
2018-04-08T20:23:47.058Z,18.03
2018-04-08T20:26:13.409Z,17.88
2018-04-08T20:28:39.993Z,17.87
2018-04-08T20:31:06.371Z,17.87
2018-04-08T20:33:32.756Z,17.76
2018-04-08T20:35:59.121Z,17.80
2018-04-08T20:38:25.484Z,17.87
2018-04-08T20:40:51.877Z,17.85
2018-04-08T20:43:18.237Z,17.92
2018-04-08T20:45:44.601Z,17.87
2018-04-08T20:48:10.948Z,17.86
2018-04-08T20:50:37.306Z,17.82
2018-04-08T20:53:03.711Z,17.79
2018-04-08T20:55:30.073Z,17.74
2018-04-08T20:57:56.430Z,17.67
2018-04-08T21:00:22.789Z,17.63
2018-04-08T21:02:49.153Z,17.69
2018-04-08T21:05:15.505Z,17.67
2018-04-08T21:07:41.863Z,17.63
2018-04-08T21:10:08.229Z,17.65
2018-04-08T21:12:34.606Z,17.65
2018-04-08T21:15:01.096Z,17.52
2018-04-08T21:17:27.553Z,17.56
2018-04-08T21:19:53.940Z,17.28
2018-04-08T21:22:20.317Z,17.20
2018-04-08T21:24:46.714Z,17.42
2018-04-08T21:27:13.117Z,17.47
2018-04-08T21:29:39.520Z,17.51
2018-04-08T21:32:05.880Z,17.55
2018-04-08T21:34:32.294Z,17.70
2018-04-08T21:36:58.694Z,17.52
2018-04-08T21:39:25.045Z,17.45
2018-04-08T21:41:51.414Z,17.13
2018-04-08T21:44:17.826Z,16.88
2018-04-08T21:46:44.210Z,16.72
2018-04-08T21:49:10.593Z,16.44
2018-04-08T21:51:36.989Z,16.51
2018-04-08T21:54:03.406Z,16.50
2018-04-08T21:56:29.813Z,16.35
2018-04-08T21:58:56.190Z,16.28
2018-04-08T22:01:22.525Z,16.13
2018-04-08T22:03:48.906Z,16.18
2018-04-08T22:06:15.270Z,16.10
2018-04-08T22:08:41.633Z,16.14
2018-04-08T22:11:07.981Z,15.75
2018-04-08T22:13:34.353Z,15.96
2018-04-08T22:16:00.756Z,15.80
2018-04-08T22:18:27.130Z,15.79
2018-04-08T22:20:53.550Z,15.72
2018-04-08T22:23:19.925Z,15.71
2018-04-08T22:25:46.295Z,15.80
2018-04-08T22:28:12.647Z,15.68
2018-04-08T22:30:39.039Z,15.64
2018-04-08T22:33:05.510Z,15.62
2018-04-08T22:35:32.178Z,15.52
2018-04-08T22:37:58.722Z,15.25
2018-04-08T22:40:25.271Z,15.11
2018-04-08T22:42:51.626Z,15.06
2018-04-08T22:45:18.184Z,15.12
2018-04-08T22:47:44.525Z,14.99
2018-04-08T22:50:10.919Z,14.93
2018-04-08T22:52:37.393Z,15.04
2018-04-08T22:55:03.791Z,14.77
2018-04-08T22:57:30.178Z,14.84
2018-04-08T22:59:56.538Z,14.64
2018-04-08T23:02:22.949Z,14.39
2018-04-08T23:04:49.299Z,14.32
2018-04-08T23:07:15.657Z,14.60
2018-04-08T23:09:42.059Z,14.83
2018-04-08T23:12:08.445Z,14.87
2018-04-08T23:14:34.789Z,14.87
2018-04-08T23:17:01.157Z,14.91
2018-04-08T23:19:27.524Z,14.84
2018-04-08T23:21:53.914Z,14.80
2018-04-08T23:24:20.252Z,14.64
2018-04-08T23:26:46.649Z,14.67
2018-04-08T23:29:12.993Z,14.71
2018-04-08T23:31:39.341Z,14.64
2018-04-08T23:34:05.710Z,14.69
2018-04-08T23:36:32.082Z,14.62
2018-04-08T23:38:58.487Z,14.69
2018-04-08T23:41:24.905Z,14.60
2018-04-08T23:43:51.313Z,14.60
2018-04-08T23:46:17.672Z,14.23
2018-04-08T23:48:44.077Z,14.40
2018-04-08T23:51:10.470Z,14.46
2018-04-08T23:53:36.838Z,14.09
2018-04-08T23:56:03.276Z,14.28
2018-04-08T23:58:29.658Z,14.02
